createdAt,value
2017-11-10T00:01:04.453Z,8.50
2017-11-10T00:03:33.294Z,8.50
2017-11-10T00:06:02.922Z,8.50
2017-11-10T00:08:31.742Z,8.40
2017-11-10T00:11:00.602Z,8.40
2017-11-10T00:13:29.959Z,8.30
2017-11-10T00:15:58.803Z,8.40
2017-11-10T00:18:28.409Z,8.60
2017-11-10T00:20:58.011Z,8.70
2017-11-10T00:23:28.129Z,8.70
2017-11-10T00:25:58.263Z,8.80
2017-11-10T00:28:27.908Z,8.90
2017-11-10T00:30:56.759Z,8.90
2017-11-10T00:33:26.356Z,8.90
2017-11-10T00:35:55.987Z,8.70
2017-11-10T00:38:24.826Z,8.60
2017-11-10T00:40:54.449Z,8.50
2017-11-10T00:43:24.066Z,8.50
2017-11-10T00:45:53.700Z,8.60
2017-11-10T00:48:22.554Z,8.50
2017-11-10T00:50:51.390Z,8.50
2017-11-10T00:53:20.252Z,8.50
2017-11-10T00:55:49.848Z,8.60
2017-11-10T00:58:19.481Z,8.70
2017-11-10T01:00:48.350Z,8.60
2017-11-10T01:03:17.962Z,8.80
2017-11-10T01:05:47.558Z,8.80
2017-11-10T01:08:17.191Z,8.70
2017-11-10T01:10:46.059Z,8.60
2017-11-10T01:13:15.660Z,8.70
2017-11-10T01:15:45.262Z,8.70
2017-11-10T01:18:15.163Z,8.70
2017-11-10T01:20:44.036Z,8.60
2017-11-10T01:23:12.868Z,8.50
2017-11-10T01:25:42.623Z,8.60
2017-11-10T01:28:11.773Z,8.60
2017-11-10T01:30:41.500Z,8.50
2017-11-10T01:33:11.128Z,8.60
2017-11-10T01:35:39.973Z,8.60
2017-11-10T01:38:08.824Z,8.70
2017-11-10T01:40:37.697Z,8.70
2017-11-10T01:43:06.539Z,8.70
2017-11-10T01:45:36.480Z,8.80
2017-11-10T01:48:07.862Z,8.80
2017-11-10T01:50:36.705Z,8.70
2017-11-10T01:53:05.588Z,8.80
2017-11-10T01:55:34.428Z,8.80
2017-11-10T01:58:03.269Z,8.80
2017-11-10T02:00:32.106Z,8.70
2017-11-10T02:03:00.949Z,8.90
2017-11-10T02:05:31.517Z,8.70
2017-11-10T02:08:00.362Z,8.80
2017-11-10T02:10:29.208Z,9.00
2017-11-10T02:12:58.065Z,9.10
2017-11-10T02:15:27.699Z,8.90
2017-11-10T02:17:56.969Z,8.80
2017-11-10T02:20:25.817Z,9.00
2017-11-10T02:22:54.650Z,9.10
2017-11-10T02:25:23.522Z,8.90
2017-11-10T02:27:53.143Z,9.00
2017-11-10T02:30:23.329Z,9.00
2017-11-10T02:32:52.153Z,8.90
2017-11-10T02:35:20.983Z,8.90
2017-11-10T02:37:49.830Z,8.80
2017-11-10T02:40:21.345Z,8.90
2017-11-10T02:42:51.026Z,8.80
2017-11-10T02:45:19.850Z,8.90
2017-11-10T02:47:48.708Z,8.90
2017-11-10T02:50:17.696Z,8.80
2017-11-10T02:52:46.558Z,8.90
2017-11-10T02:55:15.390Z,9.00
2017-11-10T02:57:44.238Z,8.80
2017-11-10T03:00:13.874Z,8.80
2017-11-10T03:02:42.697Z,8.80
2017-11-10T03:05:13.292Z,8.60
2017-11-10T03:07:42.128Z,8.60
2017-11-10T03:10:10.983Z,8.70
2017-11-10T03:12:39.808Z,8.80
2017-11-10T03:15:08.651Z,8.80
2017-11-10T03:17:37.841Z,8.80
2017-11-10T03:20:06.704Z,8.70
2017-11-10T03:22:35.548Z,8.70
2017-11-10T03:25:04.384Z,8.70
2017-11-10T03:27:34.112Z,8.70
2017-11-10T03:30:03.198Z,8.60
2017-11-10T03:32:32.035Z,8.70
2017-11-10T03:35:00.913Z,8.60
2017-11-10T03:37:29.752Z,8.50
2017-11-10T03:40:00.053Z,8.60
2017-11-10T03:42:28.864Z,8.60
2017-11-10T03:44:58.471Z,8.80
2017-11-10T03:47:27.322Z,8.80
2017-11-10T03:49:56.153Z,8.80
2017-11-10T03:52:25.005Z,8.80
2017-11-10T03:54:53.848Z,8.80
2017-11-10T03:57:23.577Z,9.10
2017-11-10T03:59:52.841Z,9.00
2017-11-10T04:02:21.672Z,9.00
2017-11-10T04:04:50.521Z,9.00
2017-11-10T04:07:19.348Z,9.20
2017-11-10T04:09:48.197Z,9.20
2017-11-10T04:12:17.026Z,9.10
2017-11-10T04:14:45.888Z,9.20
2017-11-10T04:17:15.507Z,9.30
2017-11-10T04:19:45.128Z,9.20
2017-11-10T04:22:14.744Z,9.30
2017-11-10T04:24:43.568Z,9.20
2017-11-10T04:27:12.411Z,9.10
2017-11-10T04:29:41.250Z,9.00
2017-11-10T04:32:12.116Z,9.00
2017-11-10T04:34:41.734Z,8.90
2017-11-10T04:37:10.565Z,8.90
2017-11-10T04:39:39.723Z,8.90
2017-11-10T04:42:08.599Z,9.00
2017-11-10T04:44:37.424Z,8.90
2017-11-10T04:47:06.283Z,8.90
2017-11-10T04:49:35.896Z,9.00
2017-11-10T04:52:05.392Z,9.00
2017-11-10T04:54:35.023Z,9.20
2017-11-10T04:57:04.287Z,9.20
2017-11-10T04:59:34.036Z,9.00
2017-11-10T05:02:03.097Z,8.90
2017-11-10T05:04:31.931Z,9.00
2017-11-10T05:07:01.093Z,8.90
2017-11-10T05:09:30.724Z,9.00
2017-11-10T05:11:59.560Z,8.90
2017-11-10T05:14:28.399Z,9.20
2017-11-10T05:16:57.248Z,9.20
2017-11-10T05:19:26.083Z,9.00
2017-11-10T05:21:54.957Z,9.00
2017-11-10T05:24:23.793Z,8.90
2017-11-10T05:26:53.385Z,8.90
2017-11-10T05:29:23.000Z,9.00
2017-11-10T05:31:52.618Z,9.10
2017-11-10T05:34:22.226Z,9.10
2017-11-10T05:36:51.856Z,9.10
2017-11-10T05:39:20.688Z,9.10
2017-11-10T05:41:49.525Z,9.10
2017-11-10T05:44:18.377Z,9.00
2017-11-10T05:46:48.208Z,9.00
2017-11-10T05:49:17.833Z,9.00
2017-11-10T05:51:46.679Z,8.90
2017-11-10T05:54:15.533Z,9.00
2017-11-10T05:56:44.363Z,9.10
2017-11-10T05:59:14.428Z,9.30
2017-11-10T06:01:43.595Z,9.20
2017-11-10T06:04:13.208Z,9.20
2017-11-10T06:06:42.833Z,9.20
2017-11-10T06:09:11.682Z,9.10
2017-11-10T06:11:40.518Z,9.20
2017-11-10T06:14:09.363Z,9.20
2017-11-10T06:16:38.247Z,9.30
2017-11-10T06:19:07.083Z,9.20
2017-11-10T06:21:37.569Z,9.10
2017-11-10T06:24:06.424Z,9.10
2017-11-10T06:26:35.251Z,9.20
2017-11-10T06:29:04.089Z,9.20
2017-11-10T06:31:32.928Z,9.20
2017-11-10T06:34:01.768Z,9.30
2017-11-10T06:36:30.616Z,9.40
2017-11-10T06:39:00.060Z,9.40
2017-11-10T06:41:28.908Z,9.40
2017-11-10T06:43:58.531Z,9.60
2017-11-10T06:46:28.162Z,9.70
2017-11-10T06:48:57.003Z,9.60
2017-11-10T06:51:25.849Z,9.70
2017-11-10T06:53:54.686Z,9.60
2017-11-10T06:56:23.527Z,9.60
2017-11-10T06:58:52.372Z,9.40
2017-11-10T07:01:21.210Z,9.40
2017-11-10T07:03:50.065Z,9.50
2017-11-10T07:06:18.880Z,9.50
2017-11-10T07:08:47.736Z,9.60
2017-11-10T07:11:17.346Z,9.60
2017-11-10T07:13:46.955Z,9.60
2017-11-10T07:16:15.819Z,9.60
2017-11-10T07:18:44.663Z,9.60
2017-11-10T07:21:13.496Z,9.60
2017-11-10T07:23:42.349Z,9.60
2017-11-10T07:26:11.155Z,9.80
2017-11-10T07:28:39.996Z,9.80
2017-11-10T07:31:09.613Z,9.80
2017-11-10T07:33:39.211Z,9.50
2017-11-10T07:36:08.858Z,9.20
2017-11-10T07:38:37.683Z,9.20
2017-11-10T07:41:06.531Z,9.10
2017-11-10T07:43:35.835Z,9.10
2017-11-10T07:46:04.708Z,9.10
2017-11-10T07:48:33.570Z,9.10
2017-11-10T07:51:02.441Z,9.00
2017-11-10T07:53:31.279Z,9.10
2017-11-10T07:56:00.138Z,9.20
2017-11-10T07:58:29.016Z,9.20
2017-11-10T08:00:57.877Z,9.20
2017-11-10T08:03:26.717Z,9.10
2017-11-10T08:05:55.716Z,9.10
2017-11-10T08:08:25.317Z,9.20
2017-11-10T08:10:54.929Z,9.20
2017-11-10T08:13:24.541Z,9.20
2017-11-10T08:15:54.152Z,9.40
2017-11-10T08:18:23.024Z,9.40
2017-11-10T08:20:52.613Z,9.50
2017-11-10T08:23:23.308Z,9.40
2017-11-10T08:25:52.149Z,9.40
2017-11-10T08:28:20.980Z,9.50
2017-11-10T08:30:50.601Z,9.40
2017-11-10T08:33:19.882Z,9.40
2017-11-10T08:35:49.481Z,9.30
2017-11-10T08:38:19.112Z,9.30
2017-11-10T08:40:47.932Z,9.20
2017-11-10T08:43:18.332Z,9.40
2017-11-10T08:45:47.171Z,9.40
2017-11-10T08:48:16.002Z,9.40
2017-11-10T08:50:44.840Z,9.50
2017-11-10T08:53:13.728Z,9.50
2017-11-10T08:55:42.559Z,9.50
2017-11-10T08:58:12.139Z,9.50
2017-11-10T09:00:41.946Z,9.30
2017-11-10T09:03:10.781Z,9.20
2017-11-10T09:05:39.629Z,9.20
2017-11-10T09:08:08.459Z,9.20
2017-11-10T09:10:37.293Z,9.20
2017-11-10T09:13:06.148Z,9.20
2017-11-10T09:15:35.024Z,9.20
2017-11-10T09:18:03.881Z,9.10
2017-11-10T09:20:32.763Z,9.20
2017-11-10T09:23:02.910Z,9.40
2017-11-10T09:25:31.746Z,9.30
2017-11-10T09:28:04.557Z,9.30
2017-11-10T09:30:45.236Z,9.30
2017-11-10T09:33:18.076Z,9.30
2017-11-10T09:36:07.807Z,9.30
2017-11-10T09:38:43.850Z,9.50
2017-11-10T09:41:22.625Z,9.50
2017-11-10T09:57:52.652Z,9.70
2017-11-10T10:00:25.173Z,9.80
2017-11-10T10:02:54.042Z,9.80
2017-11-10T10:05:38.116Z,9.70
2017-11-10T10:08:25.707Z,9.70
2017-11-10T10:10:56.396Z,9.80
2017-11-10T10:13:42.499Z,9.80
2017-11-10T10:16:18.576Z,9.70
2017-11-10T10:32:14.993Z,10.10
2017-11-10T10:34:43.847Z,10.10
2017-11-10T10:37:13.472Z,10.20
2017-11-10T10:39:43.088Z,10.20
2017-11-10T10:42:11.916Z,10.20
2017-11-10T10:44:40.780Z,10.20
2017-11-10T10:47:09.783Z,10.20
2017-11-10T10:49:38.635Z,10.30
2017-11-10T10:52:08.276Z,10.30
2017-11-10T10:54:37.123Z,10.30
2017-11-10T10:57:05.990Z,10.20
2017-11-10T10:59:34.831Z,10.30
2017-11-10T11:02:03.785Z,10.20
2017-11-10T11:04:32.614Z,10.10
2017-11-10T11:07:01.468Z,10.10
2017-11-10T11:09:31.156Z,10.20
2017-11-10T11:12:00.011Z,10.20
2017-11-10T11:14:28.845Z,10.40
2017-11-10T11:16:58.697Z,10.70
2017-11-10T11:19:27.535Z,10.70
2017-11-10T11:21:56.384Z,10.80
2017-11-10T11:24:25.237Z,10.80
2017-11-10T11:26:54.870Z,10.80
2017-11-10T11:29:24.471Z,10.80
2017-11-10T11:31:53.325Z,10.80
2017-11-10T11:34:22.167Z,10.90
2017-11-10T11:36:51.010Z,10.90
2017-11-10T11:39:19.871Z,10.80
2017-11-10T11:41:48.720Z,10.70
2017-11-10T11:44:17.569Z,10.60
2017-11-10T11:46:46.460Z,10.40
2017-11-10T11:49:16.075Z,10.20
2017-11-10T11:51:44.936Z,10.20
2017-11-10T11:54:13.796Z,10.10
2017-11-10T11:56:42.640Z,10.00
2017-11-10T11:59:11.493Z,9.90
2017-11-10T12:01:40.340Z,9.80
2017-11-10T12:04:10.260Z,9.80
2017-11-10T12:06:39.887Z,9.80
2017-11-10T12:09:08.742Z,9.80
2017-11-10T12:11:37.590Z,9.80
2017-11-10T12:14:06.435Z,9.80
2017-11-10T12:16:35.310Z,9.80
2017-11-10T12:19:04.164Z,9.70
2017-11-10T12:21:33.016Z,9.80
2017-11-10T12:24:02.740Z,9.80
2017-11-10T12:26:31.611Z,9.80
2017-11-10T12:29:00.518Z,9.90
2017-11-10T12:31:29.487Z,9.90
2017-11-10T12:33:58.337Z,9.90
2017-11-10T12:36:27.977Z,9.80
2017-11-10T12:38:56.825Z,9.80
2017-11-10T12:41:25.647Z,9.80
2017-11-10T12:53:40.265Z,9.40
2017-11-10T12:56:09.103Z,9.30
2017-11-10T12:58:37.941Z,9.40
2017-11-10T13:01:06.796Z,9.40
2017-11-10T13:03:35.647Z,9.40
2017-11-10T13:06:04.485Z,9.50
2017-11-10T13:08:34.099Z,9.60
2017-11-10T13:11:02.993Z,9.50
2017-11-10T13:13:32.065Z,9.70
2017-11-10T13:16:01.042Z,9.70
2017-11-10T13:18:29.884Z,9.70
2017-11-10T13:20:58.735Z,9.70
2017-11-10T13:23:27.580Z,9.70
2017-11-10T13:25:56.428Z,9.70
2017-11-10T13:28:25.282Z,9.80
2017-11-10T13:30:54.916Z,9.80
2017-11-10T13:33:23.758Z,9.80
2017-11-10T13:35:52.896Z,9.80
2017-11-10T13:38:21.768Z,9.80
2017-11-10T13:40:50.727Z,9.80
2017-11-10T13:43:20.188Z,9.80
2017-11-10T13:45:49.040Z,9.90
2017-11-10T13:48:18.673Z,10.00
2017-11-10T13:50:47.539Z,10.00
2017-11-10T13:53:16.398Z,10.10
2017-11-10T13:55:45.317Z,10.00
2017-11-10T13:58:14.182Z,10.00
2017-11-10T14:00:43.077Z,10.00
2017-11-10T14:03:12.696Z,10.00
2017-11-10T14:05:41.567Z,10.00
2017-11-10T14:08:10.380Z,10.00
2017-11-10T14:10:40.024Z,10.00
2017-11-10T14:13:11.156Z,10.00
2017-11-10T14:15:40.028Z,10.00
2017-11-10T14:18:09.659Z,10.00
2017-11-10T14:20:38.520Z,10.00
2017-11-10T14:23:08.146Z,10.00
2017-11-10T14:25:37.758Z,9.90
2017-11-10T14:28:06.579Z,9.90
2017-11-10T14:30:35.457Z,9.90
2017-11-10T14:33:04.300Z,9.80
2017-11-10T14:35:33.931Z,9.70
2017-11-10T14:38:02.842Z,9.70
2017-11-10T14:40:31.683Z,9.70
2017-11-10T14:43:01.298Z,9.60
2017-11-10T14:45:30.901Z,9.50
2017-11-10T14:48:01.609Z,9.50
2017-11-10T14:50:30.448Z,9.60
2017-11-10T14:52:59.348Z,9.70
2017-11-10T14:55:28.212Z,9.80
2017-11-10T14:57:57.325Z,9.80
2017-11-10T15:00:26.185Z,9.70
2017-11-10T15:02:55.929Z,9.60
2017-11-10T15:05:24.784Z,9.50
2017-11-10T15:07:53.633Z,9.60
2017-11-10T15:10:22.516Z,9.70
2017-11-10T15:12:51.360Z,9.70
2017-11-10T15:15:21.204Z,9.60
2017-11-10T15:17:50.037Z,9.60
2017-11-10T15:20:18.905Z,9.50
2017-11-10T15:22:47.712Z,9.50
2017-11-10T15:25:16.688Z,9.30
2017-11-10T15:27:45.968Z,9.20
2017-11-10T15:30:15.559Z,9.00
2017-11-10T15:32:44.411Z,9.00
2017-11-10T15:35:13.251Z,9.00
2017-11-10T15:37:42.073Z,9.00
2017-11-10T15:40:10.899Z,9.10
2017-11-10T15:42:39.746Z,9.10
2017-11-10T15:45:08.643Z,9.20
2017-11-10T15:47:37.621Z,9.20
2017-11-10T15:50:06.440Z,9.10
2017-11-10T15:52:35.320Z,9.00
2017-11-10T15:55:04.192Z,9.00
2017-11-10T15:57:33.030Z,9.10
2017-11-10T16:00:01.981Z,9.20
2017-11-10T16:02:30.910Z,9.30
2017-11-10T16:04:59.736Z,9.30
2017-11-10T16:07:29.572Z,9.30
2017-11-10T16:09:58.687Z,9.30
2017-11-10T16:12:31.405Z,9.40
2017-11-10T16:15:01.739Z,9.40
2017-11-10T16:17:31.741Z,9.40
2017-11-10T16:20:00.821Z,9.40
2017-11-10T16:22:29.668Z,9.50
2017-11-10T16:24:58.516Z,9.30
2017-11-10T16:27:27.385Z,9.40
2017-11-10T16:29:56.981Z,9.30
2017-11-10T16:32:27.155Z,9.20
2017-11-10T16:34:56.011Z,9.20
2017-11-10T16:37:24.869Z,9.20
2017-11-10T16:39:53.709Z,9.40
2017-11-10T16:42:24.146Z,9.60
2017-11-10T16:44:54.230Z,9.50
2017-11-10T16:47:25.026Z,9.60
2017-11-10T16:49:54.196Z,9.40
2017-11-10T16:52:23.894Z,9.60
2017-11-10T16:54:52.800Z,9.50
2017-11-10T16:57:21.641Z,9.50
2017-11-10T16:59:51.251Z,9.90
2017-11-10T17:02:20.869Z,10.00
2017-11-10T17:04:49.725Z,10.00
2017-11-10T17:07:18.579Z,9.80
2017-11-10T17:09:47.413Z,9.60
2017-11-10T17:12:16.249Z,9.40
2017-11-10T17:14:45.084Z,9.20
2017-11-10T17:17:15.455Z,9.30
2017-11-10T17:19:44.285Z,9.30
2017-11-10T17:22:13.159Z,9.20
2017-11-10T17:24:42.008Z,9.20
2017-11-10T17:27:10.851Z,9.30
2017-11-10T17:29:39.716Z,9.30
2017-11-10T17:32:08.553Z,9.00
2017-11-10T17:34:37.461Z,8.90
2017-11-10T17:37:06.286Z,8.90
2017-11-10T17:39:35.144Z,8.70
2017-11-10T17:42:04.110Z,8.70
2017-11-10T17:44:32.999Z,8.70
2017-11-10T17:47:01.877Z,8.80
2017-11-10T17:49:30.719Z,8.80
2017-11-10T17:51:59.588Z,8.80
2017-11-10T17:54:29.209Z,8.40
2017-11-10T17:56:58.828Z,8.50
2017-11-10T17:59:27.693Z,8.40
2017-11-10T18:01:57.318Z,8.50
2017-11-10T18:04:26.170Z,8.50
2017-11-10T18:06:55.028Z,8.60
2017-11-10T18:09:23.888Z,8.70
2017-11-10T18:11:52.747Z,8.90
2017-11-10T18:14:21.580Z,9.00
2017-11-10T18:16:50.422Z,9.00
2017-11-10T18:19:19.257Z,9.00
2017-11-10T18:21:48.085Z,9.00
2017-11-10T18:24:16.933Z,8.70
2017-11-10T18:26:45.795Z,8.60
2017-11-10T18:29:14.612Z,8.60
2017-11-10T18:31:44.196Z,8.60
2017-11-10T18:34:13.812Z,8.60
2017-11-10T18:36:43.380Z,8.50
2017-11-10T18:39:12.233Z,8.70
2017-11-10T18:41:41.067Z,8.70
2017-11-10T18:44:11.097Z,8.50
2017-11-10T18:46:40.940Z,8.60
2017-11-10T18:49:17.570Z,8.50
2017-11-10T18:51:55.010Z,8.60
2017-11-10T18:54:23.850Z,8.50
2017-11-10T18:56:53.810Z,8.50
2017-11-10T18:59:23.129Z,8.50
2017-11-10T19:01:52.785Z,8.30
2017-11-10T19:04:21.669Z,8.30
2017-11-10T19:06:50.504Z,8.40
2017-11-10T19:09:19.362Z,8.40
2017-11-10T19:11:48.196Z,8.50
2017-11-10T19:14:17.805Z,8.50
2017-11-10T19:16:47.414Z,8.40
2017-11-10T19:19:17.075Z,8.40
2017-11-10T19:21:45.898Z,8.40
2017-11-10T19:24:14.773Z,8.40
2017-11-10T19:26:43.835Z,8.30
2017-11-10T19:29:13.068Z,8.30
2017-11-10T19:31:41.908Z,8.20
2017-11-10T19:34:11.617Z,8.20
2017-11-10T19:36:40.510Z,8.20
2017-11-10T19:39:10.220Z,8.10
2017-11-10T19:41:40.243Z,8.10
2017-11-10T19:44:09.857Z,8.30
2017-11-10T19:46:39.130Z,8.30
2017-11-10T19:49:10.503Z,8.30
2017-11-10T19:51:40.673Z,8.20
2017-11-10T19:54:09.571Z,8.20
2017-11-10T19:56:39.407Z,8.20
2017-11-10T19:59:10.549Z,8.20
2017-11-10T20:01:40.191Z,8.00
2017-11-10T20:04:09.808Z,8.20
2017-11-10T20:06:39.502Z,8.20
2017-11-10T20:09:08.985Z,8.30
2017-11-10T20:11:38.277Z,8.20
2017-11-10T20:14:08.022Z,8.00
2017-11-10T20:16:37.384Z,8.00
2017-11-10T20:19:07.444Z,8.00
2017-11-10T20:21:44.684Z,8.20
2017-11-10T20:24:15.044Z,8.10
2017-11-10T20:26:45.357Z,8.00
2017-11-10T20:29:21.995Z,8.00
2017-11-10T20:31:55.364Z,8.00
2017-11-10T20:34:28.581Z,7.90
2017-11-10T20:50:06.081Z,7.60
2017-11-10T20:52:39.462Z,7.50
2017-11-10T20:55:08.819Z,7.70
2017-11-10T20:57:39.795Z,7.90
2017-11-10T21:00:08.913Z,8.00
2017-11-10T21:02:37.864Z,8.20
2017-11-10T21:05:07.511Z,8.20
2017-11-10T21:20:36.378Z,8.10
2017-11-10T21:23:05.314Z,7.40
2017-11-10T21:25:34.232Z,7.50
2017-11-10T21:28:04.106Z,7.40
2017-11-10T21:30:33.114Z,7.50
2017-11-10T21:33:02.525Z,7.50
2017-11-10T21:35:31.975Z,7.50
2017-11-10T21:38:00.808Z,7.60
2017-11-10T21:40:29.665Z,7.40
2017-11-10T21:42:58.501Z,7.30
2017-11-10T21:45:27.336Z,7.40
2017-11-10T21:47:56.187Z,7.40
2017-11-10T21:50:25.081Z,7.40
2017-11-10T21:52:53.895Z,7.50
2017-11-10T21:55:22.758Z,7.60
2017-11-10T21:57:52.252Z,7.70
2017-11-10T22:00:21.803Z,7.60
2017-11-10T22:02:50.610Z,7.50
2017-11-10T22:05:20.232Z,7.40
2017-11-10T22:07:50.050Z,7.40
2017-11-10T22:10:18.901Z,7.40
2017-11-10T22:12:49.242Z,7.40
2017-11-10T22:28:18.107Z,7.40
2017-11-10T22:30:47.821Z,7.20
2017-11-10T22:33:16.643Z,7.10
2017-11-10T22:35:45.559Z,7.20
2017-11-10T22:38:15.186Z,7.40
2017-11-10T22:40:44.027Z,7.30
2017-11-10T22:43:12.856Z,7.30
2017-11-10T22:45:41.721Z,7.40
2017-11-10T22:48:11.342Z,7.30
2017-11-10T22:50:40.961Z,7.30
2017-11-10T22:53:09.806Z,7.30
2017-11-10T22:55:38.648Z,7.40
2017-11-10T22:58:07.489Z,7.60
2017-11-10T23:00:36.326Z,7.70
2017-11-10T23:03:05.177Z,7.80
2017-11-10T23:05:34.163Z,7.80
2017-11-10T23:08:04.504Z,7.50
2017-11-10T23:10:34.149Z,7.60
2017-11-10T23:13:02.982Z,7.50
2017-11-10T23:15:32.623Z,7.50
2017-11-10T23:18:01.458Z,7.40
2017-11-10T23:20:30.279Z,7.40
2017-11-10T23:22:59.888Z,7.60
2017-11-10T23:25:29.528Z,7.50
2017-11-10T23:27:58.390Z,7.40
2017-11-10T23:30:28.029Z,7.50
2017-11-10T23:32:57.632Z,7.60
2017-11-10T23:35:26.474Z,7.50
2017-11-10T23:37:56.206Z,7.70
2017-11-10T23:40:25.889Z,7.80
2017-11-10T23:42:55.352Z,7.70
2017-11-10T23:45:24.206Z,7.70
2017-11-10T23:47:53.826Z,7.80
2017-11-10T23:50:23.434Z,8.00
2017-11-10T23:52:53.032Z,8.20
2017-11-10T23:55:22.662Z,8.10
2017-11-10T23:57:51.504Z,8.00
